Time;durP1;ratioP1;P1;durP2;ratioP2;P2;SDS_P1;SDS_P2;PMS_P1;PMS_P2;Temp;Humidity;BMP_temperature;BMP_pressure;BME280_temperature;BME280_humidity;BME280_pressure;Samples;Min_cycle;Max_cycle;Signal;HPM_P1;HPM_P2
2022/12/28 00:01:29;;;;;;;78.95;49.05;;;10.80;1.00;;;;;;5031306;28;20025;-61
2022/12/28 00:03:54;;;;;;;67.43;43.85;;;10.80;1.00;;;;;;5031656;28;20087;-61
2022/12/28 00:06:23;;;;;;;70.97;44.00;;;10.70;1.00;;;;;;5030593;28;20639;-61
2022/12/28 00:08:52;;;;;;;78.50;48.70;;;10.80;1.00;;;;;;5040837;28;20021;-61
2022/12/28 00:11:20;;;;;;;73.05;47.75;;;10.70;1.00;;;;;;5030686;28;20517;-61
2022/12/28 00:13:46;;;;;;;71.63;47.50;;;10.80;1.00;;;;;;5026292;28;20068;-61
2022/12/28 00:16:34;;;;;;;69.03;46.25;;;10.80;1.00;;;;;;5027430;28;20022;-61
2022/12/28 00:19:03;;;;;;;66.53;43.75;;;10.90;1.00;;;;;;5020124;28;20461;-61
2022/12/28 00:21:29;;;;;;;67.53;44.78;;;10.90;1.00;;;;;;5032116;28;20026;-60
2022/12/28 00:23:57;;;;;;;64.18;43.03;;;10.90;1.00;;;;;;5031948;28;20025;-60
2022/12/28 00:26:23;;;;;;;65.93;45.05;;;11.00;1.00;;;;;;5029629;28;20087;-61
2022/12/28 00:28:49;;;;;;;66.70;43.58;;;10.90;1.00;;;;;;5031058;28;20459;-60
2022/12/28 00:31:15;;;;;;;57.58;42.22;;;10.90;1.00;;;;;;5030996;28;20040;-60
2022/12/28 00:33:41;;;;;;;56.80;42.50;;;11.00;1.00;;;;;;5031745;28;20057;-60
2022/12/28 00:36:16;;;;;;;59.08;40.78;;;10.60;1.00;;;;;;5031620;28;20096;-60
2022/12/28 00:38:42;;;;;;;;;;;10.60;1.00;;;;;;5024263;28;20059;-60
2022/12/28 00:41:09;;;;;;;57.88;40.72;;;10.60;1.00;;;;;;5028523;28;20282;-60
2022/12/28 00:43:35;;;;;;;58.75;42.50;;;10.60;1.00;;;;;;5045316;28;20120;-60
2022/12/28 00:46:13;;;;;;;53.83;40.30;;;10.80;1.00;;;;;;5031429;28;20052;-61
2022/12/28 00:48:39;;;;;;;49.42;37.95;;;10.80;1.00;;;;;;5031791;28;20049;-60
2022/12/28 00:51:08;;;;;;;49.60;37.80;;;10.80;1.00;;;;;;5022554;28;20476;-61
2022/12/28 00:53:33;;;;;;;46.97;36.45;;;10.80;1.00;;;;;;5031816;28;20025;-60
2022/12/28 00:56:17;;;;;;;46.85;36.30;;;10.90;1.00;;;;;;5029511;28;20550;-60
2022/12/28 00:58:44;;;;;;;47.35;36.97;;;10.90;1.00;;;;;;5032596;28;20379;-60
2022/12/28 01:01:18;;;;;;;49.90;39.00;;;10.70;1.00;;;;;;5035084;28;20049;-60
2022/12/28 01:03:45;;;;;;;47.60;38.45;;;10.60;1.00;;;;;;5035359;28;20041;-60
2022/12/28 01:06:12;;;;;;;52.17;39.30;;;10.80;1.00;;;;;;5034949;28;20017;-60
2022/12/28 01:08:39;;;;;;;45.80;36.50;;;10.80;1.00;;;;;;5035148;28;20021;-61
2022/12/28 01:11:16;;;;;;;48.97;37.08;;;10.90;1.00;;;;;;5033958;28;20503;-60
2022/12/28 01:13:42;;;;;;;53.75;37.78;;;10.90;1.00;;;;;;5035275;28;20026;-61
2022/12/28 01:16:16;;;;;;;49.45;38.35;;;10.90;1.00;;;;;;5023737;28;20071;-60
2022/12/28 01:18:43;;;;;;;47.90;38.17;;;10.90;1.00;;;;;;5035001;28;20041;-61
2022/12/28 01:21:15;;;;;;;53.42;39.40;;;10.80;1.00;;;;;;5024114;28;20101;-60
2022/12/28 01:23:41;;;;;;;49.53;38.22;;;10.90;1.00;;;;;;5023915;28;20080;-60
2022/12/28 01:26:07;;;;;;;51.58;38.83;;;10.90;1.00;;;;;;5031948;28;20443;-61
2022/12/28 01:28:33;;;;;;;53.38;37.63;;;11.00;1.00;;;;;;5034694;28;20018;-60
2022/12/28 01:31:07;;;;;;;48.83;36.35;;;11.00;1.00;;;;;;5030319;28;20072;-61
2022/12/28 01:33:33;;;;;;;46.25;36.45;;;10.90;1.00;;;;;;5033173;28;20045;-61
2022/12/28 01:36:04;;;;;;;48.20;37.63;;;10.80;1.00;;;;;;5034468;28;20441;-61
2022/12/28 01:38:29;;;;;;;47.08;38.67;;;10.90;1.00;;;;;;5032616;28;20046;-61
2022/12/28 01:40:55;;;;;;;47.20;37.10;;;10.90;1.00;;;;;;5025440;28;20432;-61
2022/12/28 01:44:06;;;;;;;46.67;38.42;;;11.00;1.00;;;;;;5045221;28;20028;-60
2022/12/28 01:46:52;;;;;;;45.63;36.15;;;10.90;1.00;;;;;;5034174;28;20476;-61
2022/12/28 01:49:27;;;;;;;48.83;38.42;;;11.00;1.00;;;;;;5033190;28;20044;-61
2022/12/28 01:52:07;;;;;;;47.03;35.22;;;11.00;1.00;;;;;;5026857;28;20117;-61
2022/12/28 01:54:49;;;;;;;46.78;37.47;;;10.90;1.00;;;;;;5020614;28;20018;-60
2022/12/28 01:57:17;;;;;;;49.63;38.63;;;10.90;1.00;;;;;;5034134;28;20033;-61
2022/12/28 01:59:49;;;;;;;45.58;38.08;;;10.80;1.00;;;;;;5028546;28;20037;-61
2022/12/28 02:02:15;;;;;;;48.38;38.22;;;10.80;1.00;;;;;;5028332;28;20034;-60
2022/12/28 02:04:41;;;;;;;41.47;33.95;;;10.80;1.00;;;;;;5032307;28;20040;-61
2022/12/28 02:07:06;;;;;;;41.92;34.40;;;10.80;1.00;;;;;;5034369;28;20040;-61
2022/12/28 02:09:37;;;;;;;47.25;36.30;;;10.70;1.00;;;;;;5033974;28;20048;-61
2022/12/28 02:12:04;;;;;;;43.42;35.60;;;10.80;1.00;;;;;;5033486;28;20029;-61
2022/12/28 02:14:30;;;;;;;44.17;34.38;;;10.70;1.00;;;;;;5028509;28;20189;-60
2022/12/28 02:16:56;;;;;;;45.15;36.33;;;10.80;1.00;;;;;;5026034;28;20033;-60
2022/12/28 02:19:43;;;;;;;43.67;35.17;;;10.80;1.00;;;;;;5026786;28;20032;-60
2022/12/28 02:22:09;;;;;;;46.10;35.65;;;10.80;1.00;;;;;;5034444;28;20452;-61
2022/12/28 02:24:53;;;;;;;43.17;34.22;;;10.70;1.00;;;;;;5030980;28;20046;-60
2022/12/28 02:27:37;;;;;;;43.55;36.45;;;10.70;1.00;;;;;;5034105;28;20033;-61
2022/12/28 02:30:11;;;;;;;44.53;35.65;;;10.80;1.00;;;;;;5029990;28;20076;-61
2022/12/28 02:32:54;;;;;;;45.17;34.33;;;10.80;1.00;;;;;;5033293;28;20055;-61
2022/12/28 02:35:36;;;;;;;43.20;34.28;;;10.80;1.00;;;;;;5031708;28;20116;-60
2022/12/28 02:38:13;;;;;;;44.38;34.95;;;10.80;1.00;;;;;;5032710;28;20469;-61
2022/12/28 02:41:09;;;;;;;41.03;33.45;;;10.70;1.00;;;;;;5030062;28;20025;-61
2022/12/28 02:43:35;;;;;;;;;;;10.80;1.00;;;;;;5034962;28;20033;-61
2022/12/28 02:52:15;;;;;;;38.97;32.70;;;10.80;1.00;;;;;;5033075;28;20095;-60
2022/12/28 02:58:04;;;;;;;39.00;32.60;;;10.80;1.00;;;;;;5021910;28;20043;-61
2022/12/28 03:00:57;;;;;;;39.13;30.92;;;10.80;1.00;;;;;;5020909;28;20272;-60
2022/12/28 03:03:43;;;;;;;40.60;32.13;;;10.80;1.00;;;;;;5033151;28;20017;-61
2022/12/28 03:09:27;;;;;;;43.35;32.75;;;10.90;1.00;;;;;;5018722;28;20095;-61
2022/12/28 03:12:01;;;;;;;38.92;31.15;;;10.90;1.00;;;;;;5028686;28;20112;-60
2022/12/28 03:14:41;;;;;;;39.72;33.03;;;10.80;1.00;;;;;;5032794;28;20028;-60
2022/12/28 03:31:15;;;;;;;39.63;31.75;;;10.80;1.00;;;;;;5019422;28;20432;-61
2022/12/28 03:33:45;;;;;;;38.50;31.77;;;10.90;1.00;;;;;;5028499;28;20030;-61
2022/12/28 03:36:22;;;;;;;40.40;31.75;;;10.90;1.00;;;;;;5031816;28;20043;-60
2022/12/28 03:38:53;;;;;;;36.90;31.33;;;10.90;1.00;;;;;;5030547;28;20067;-61
2022/12/28 03:41:29;;;;;;;38.25;31.92;;;10.90;1.00;;;;;;5032430;28;20537;-60
2022/12/28 03:43:59;;;;;;;38.75;30.42;;;10.90;1.00;;;;;;5034132;28;20064;-60
2022/12/28 03:46:41;;;;;;;39.88;31.50;;;10.90;1.00;;;;;;5036696;28;20032;-60
2022/12/28 03:49:07;;;;;;;44.70;32.25;;;10.90;1.00;;;;;;5025943;28;20018;-60
2022/12/28 03:51:34;;;;;;;38.28;30.10;;;10.80;1.00;;;;;;5028308;28;20082;-61
2022/12/28 03:53:59;;;;;;;40.42;30.73;;;10.80;1.00;;;;;;5030439;28;20350;-60
2022/12/28 03:56:29;;;;;;;41.28;30.25;;;10.90;1.00;;;;;;5030438;28;20025;-61
2022/12/28 03:58:55;;;;;;;39.95;31.15;;;10.90;1.00;;;;;;5032137;28;20076;-61
2022/12/28 04:01:21;;;;;;;39.95;31.20;;;10.80;1.00;;;;;;5028382;28;20487;-61
2022/12/28 04:03:47;;;;;;;43.33;31.92;;;10.90;1.00;;;;;;5029128;28;20109;-61
2022/12/28 04:06:15;;;;;;;43.13;32.53;;;10.90;1.00;;;;;;5031989;28;20379;-61
2022/12/28 04:08:42;;;;;;;37.75;30.08;;;10.90;1.00;;;;;;5032180;28;20556;-60
2022/12/28 04:11:08;;;;;;;36.25;29.88;;;10.90;1.00;;;;;;5030826;28;20026;-61
2022/12/28 04:13:34;;;;;;;41.97;32.25;;;11.00;1.00;;;;;;5030305;28;20522;-61
2022/12/28 04:16:03;;;;;;;43.95;32.50;;;11.00;1.00;;;;;;5030405;28;20053;-61
2022/12/28 04:18:32;;;;;;;43.22;32.25;;;11.00;1.00;;;;;;5031756;28;20422;-61
2022/12/28 04:20:59;;;;;;;41.25;32.28;;;11.10;1.00;;;;;;5030550;28;20119;-61
2022/12/28 04:23:25;;;;;;;40.72;31.30;;;11.10;1.00;;;;;;5031667;28;20502;-61
2022/12/28 04:26:04;;;;;;;40.15;30.83;;;11.10;1.00;;;;;;5024233;28;20025;-60
2022/12/28 04:28:31;;;;;;;42.30;31.58;;;11.20;1.00;;;;;;5032064;28;20034;-61
2022/12/28 04:30:58;;;;;;;45.78;32.97;;;11.20;1.00;;;;;;5030091;28;20362;-61
2022/12/28 04:33:25;;;;;;;43.25;32.70;;;11.20;1.00;;;;;;5031494;28;20036;-61
2022/12/28 04:35:52;;;;;;;47.30;34.58;;;11.20;1.00;;;;;;5022602;28;20321;-61
2022/12/28 04:38:21;;;;;;;42.20;33.67;;;11.20;1.00;;;;;;5030025;28;20515;-61
2022/12/28 04:40:46;;;;;;;47.58;34.50;;;11.30;1.00;;;;;;5021999;28;20033;-61
2022/12/28 04:43:12;;;;;;;43.90;32.53;;;11.30;1.00;;;;;;5013753;28;20033;-61
2022/12/28 04:45:38;;;;;;;41.95;32.00;;;11.30;1.00;;;;;;5028722;28;20057;-61
2022/12/28 04:48:03;;;;;;;40.72;31.95;;;11.20;1.00;;;;;;5031937;28;20025;-60
2022/12/28 04:50:29;;;;;;;39.13;31.48;;;11.30;1.00;;;;;;5022707;28;20475;-61
2022/12/28 04:52:56;;;;;;;43.15;32.45;;;11.30;1.00;;;;;;5031442;28;20021;-61
2022/12/28 04:55:22;;;;;;;38.63;31.45;;;11.30;1.00;;;;;;5022147;28;20044;-61
2022/12/28 04:57:48;;;;;;;37.08;30.08;;;11.30;1.00;;;;;;5029781;28;20487;-61
2022/12/28 05:00:14;;;;;;;39.10;30.75;;;11.20;1.00;;;;;;5030858;28;20479;-61
2022/12/28 05:02:39;;;;;;;41.47;32.88;;;11.20;1.00;;;;;;5031349;28;20049;-61
2022/12/28 05:05:05;;;;;;;41.13;32.60;;;11.30;1.00;;;;;;5028717;28;20068;-61
2022/12/28 05:07:31;;;;;;;41.10;31.23;;;11.30;1.00;;;;;;5025280;28;20030;-60
2022/12/28 05:09:57;;;;;;;38.92;30.67;;;11.20;1.00;;;;;;5029971;28;20040;-61
2022/12/28 05:12:23;;;;;;;45.03;33.22;;;11.30;1.00;;;;;;5023309;28;20125;-61
2022/12/28 05:14:48;;;;;;;42.85;32.72;;;11.30;1.00;;;;;;5025954;28;20510;-60
2022/12/28 05:17:14;;;;;;;44.70;34.33;;;11.20;1.00;;;;;;5030221;28;20037;-61
2022/12/28 05:19:40;;;;;;;44.15;35.05;;;11.20;1.00;;;;;;5029693;28;20498;-60
2022/12/28 05:22:10;;;;;;;45.55;35.17;;;11.30;1.00;;;;;;5031653;28;20029;-60
2022/12/28 05:24:48;;;;;;;45.67;33.63;;;11.30;1.00;;;;;;5031038;28;20044;-60
2022/12/28 05:27:14;;;;;;;41.58;32.42;;;11.20;1.00;;;;;;5031419;28;20028;-61
2022/12/28 05:29:39;;;;;;;40.22;32.13;;;11.30;1.00;;;;;;5029330;28;20104;-61
2022/12/28 05:32:05;;;;;;;41.85;32.20;;;11.30;1.00;;;;;;5031245;28;20079;-61
2022/12/28 05:34:31;;;;;;;44.30;33.25;;;11.30;1.00;;;;;;5026628;28;20407;-61
2022/12/28 05:36:56;;;;;;;49.05;34.63;;;11.30;1.00;;;;;;5029048;28;20021;-61
2022/12/28 05:39:23;;;;;;;45.35;35.97;;;11.30;1.00;;;;;;5029488;28;20140;-61
2022/12/28 05:41:48;;;;;;;41.97;33.47;;;11.30;1.00;;;;;;5031213;28;20056;-60
2022/12/28 05:44:14;;;;;;;44.47;36.28;;;11.30;1.00;;;;;;5028153;28;20411;-60
2022/12/28 05:46:40;;;;;;;46.42;35.83;;;11.30;1.00;;;;;;5027002;28;20036;-61
2022/12/28 05:49:08;;;;;;;45.22;35.65;;;11.30;1.00;;;;;;5034085;28;20021;-60
2022/12/28 05:51:33;;;;;;;48.03;35.35;;;11.40;1.00;;;;;;5034582;28;20033;-61
2022/12/28 05:57:21;;;;;;;43.92;33.90;;;11.30;1.00;;;;;;5032264;28;20055;-60
2022/12/28 05:59:46;;;;;;;45.75;35.92;;;11.30;1.00;;;;;;5032729;28;20116;-61
2022/12/28 06:02:12;;;;;;;47.10;35.00;;;11.30;1.00;;;;;;5034650;28;20047;-61
2022/12/28 06:04:37;;;;;;;39.65;33.00;;;11.30;1.00;;;;;;5033980;28;20033;-61
2022/12/28 06:07:03;;;;;;;45.60;35.63;;;11.30;1.00;;;;;;5034383;28;20026;-61
2022/12/28 06:09:29;;;;;;;46.38;35.28;;;11.30;1.00;;;;;;5032712;28;20029;-61
2022/12/28 06:11:54;;;;;;;44.95;34.33;;;11.30;1.00;;;;;;5034214;28;20486;-61
2022/12/28 06:14:20;;;;;;;42.45;34.67;;;11.30;1.00;;;;;;5031140;28;20025;-61
2022/12/28 06:16:45;;;;;;;42.53;33.33;;;11.30;1.00;;;;;;5034031;28;20030;-60
2022/12/28 06:19:14;;;;;;;42.75;32.55;;;11.30;1.00;;;;;;5028934;28;20057;-61
2022/12/28 06:21:40;;;;;;;42.95;33.05;;;11.30;1.00;;;;;;5032128;28;20446;-61
2022/12/28 06:24:07;;;;;;;41.45;33.03;;;11.30;1.00;;;;;;5032394;28;20113;-61
2022/12/28 06:26:34;;;;;;;41.35;32.13;;;11.30;1.00;;;;;;5034176;28;20108;-60
2022/12/28 06:29:02;;;;;;;41.20;32.35;;;11.30;1.00;;;;;;5033637;28;20029;-60
2022/12/28 06:31:36;;;;;;;43.83;33.15;;;11.30;1.00;;;;;;5033868;28;20092;-61
2022/12/28 06:34:05;;;;;;;43.08;32.33;;;11.30;1.00;;;;;;5033959;28;20132;-61
2022/12/28 06:36:37;;;;;;;37.80;31.52;;;11.30;1.00;;;;;;5032106;28;20182;-60
2022/12/28 06:39:05;;;;;;;44.05;32.33;;;11.20;1.00;;;;;;5033521;28;20042;-60
2022/12/28 06:41:31;;;;;;;37.42;29.52;;;11.10;1.00;;;;;;5023036;28;20048;-61
2022/12/28 06:43:58;;;;;;;37.17;29.58;;;11.20;1.00;;;;;;5026428;28;20447;-60
2022/12/28 06:46:30;;;;;;;40.47;32.55;;;11.20;1.00;;;;;;5031937;28;20025;-60
2022/12/28 06:48:56;;;;;;;40.00;30.60;;;11.20;1.00;;;;;;5033228;28;20375;-60
2022/12/28 06:51:29;;;;;;;42.33;31.80;;;11.20;1.00;;;;;;5030823;28;20029;-60
2022/12/28 06:53:56;;;;;;;39.13;30.83;;;11.20;1.00;;;;;;5033373;28;20025;-60
2022/12/28 06:56:27;;;;;;;42.58;31.80;;;11.20;1.00;;;;;;5036784;28;20032;-60
2022/12/28 06:58:54;;;;;;;40.72;32.08;;;11.20;1.00;;;;;;5039246;28;20046;-60
2022/12/28 07:01:27;;;;;;;38.83;30.50;;;11.20;1.00;;;;;;5032785;28;20068;-61
2022/12/28 07:03:55;;;;;;;38.30;31.33;;;11.10;1.00;;;;;;5030153;28;20372;-60
2022/12/28 07:06:23;;;;;;;40.47;32.20;;;11.10;1.00;;;;;;5032932;28;20025;-60
2022/12/28 07:08:49;;;;;;;41.00;33.42;;;11.20;1.00;;;;;;5032776;28;20438;-61
2022/12/28 07:11:21;;;;;;;38.20;30.95;;;11.00;1.00;;;;;;5032802;28;20502;-60
2022/12/28 07:13:47;;;;;;;36.60;31.33;;;11.10;1.00;;;;;;5027222;28;20041;-60
2022/12/28 07:16:16;;;;;;;45.45;32.38;;;11.10;1.00;;;;;;5028002;28;20017;-60
2022/12/28 07:18:42;;;;;;;40.10;31.65;;;11.10;1.00;;;;;;5022376;28;20447;-60
2022/12/28 07:21:16;;;;;;;36.95;30.27;;;11.20;1.00;;;;;;5026543;28;20025;-60
2022/12/28 07:23:41;;;;;;;39.40;31.58;;;11.20;1.00;;;;;;5019852;28;20116;-60
2022/12/28 07:26:10;;;;;;;39.42;31.58;;;11.20;1.00;;;;;;5027768;28;20108;-60
2022/12/28 07:28:40;;;;;;;43.83;30.67;;;11.20;1.00;;;;;;5032388;28;20815;-60
2022/12/28 07:31:15;;;;;;;40.80;32.85;;;11.20;1.00;;;;;;5030856;28;20021;-60
2022/12/28 07:33:41;;;;;;;37.65;31.70;;;11.20;1.00;;;;;;5031275;28;20067;-60
2022/12/28 07:36:10;;;;;;;39.72;31.15;;;11.10;1.00;;;;;;5031148;28;20075;-60
2022/12/28 07:38:36;;;;;;;40.70;30.95;;;11.20;1.00;;;;;;5031998;28;20037;-60
2022/12/28 07:41:03;;;;;;;41.90;31.90;;;11.30;1.00;;;;;;5032142;28;20410;-60
2022/12/28 07:43:29;;;;;;;42.42;31.83;;;11.20;1.00;;;;;;5032232;28;20036;-60
2022/12/28 07:46:03;;;;;;;39.55;30.00;;;11.20;1.00;;;;;;5021886;28;20113;-60
2022/12/28 07:48:30;;;;;;;42.67;30.55;;;11.30;1.00;;;;;;5025667;28;20121;-60
2022/12/28 07:50:56;;;;;;;44.13;32.65;;;11.30;1.00;;;;;;5028211;28;20097;-60
2022/12/28 07:53:21;;;;;;;39.38;32.17;;;11.30;1.00;;;;;;5025148;28;20112;-60
2022/12/28 07:55:58;;;;;;;43.17;31.75;;;11.40;1.00;;;;;;5029579;28;20022;-60
2022/12/28 07:58:24;;;;;;;43.22;33.50;;;11.50;1.00;;;;;;5030636;28;20083;-60
2022/12/28 08:00:49;;;;;;;41.92;31.63;;;11.50;1.00;;;;;;5030410;28;20071;-60
2022/12/28 08:03:16;;;;;;;42.03;31.27;;;11.50;1.00;;;;;;5030730;28;20025;-60
2022/12/28 08:05:41;;;;;;;48.72;31.25;;;11.50;1.00;;;;;;5032103;28;20048;-61
2022/12/28 08:08:07;;;;;;;38.47;29.73;;;11.50;1.00;;;;;;5031519;28;20013;-60
2022/12/28 08:10:33;;;;;;;41.45;31.15;;;11.60;1.00;;;;;;5029964;28;20037;-60
2022/12/28 08:12:59;;;;;;;39.85;28.58;;;11.60;1.00;;;;;;5029989;28;20120;-60
2022/12/28 08:15:26;;;;;;;40.78;31.42;;;11.60;1.00;;;;;;5022497;28;20116;-60
2022/12/28 08:17:53;;;;;;;40.42;31.20;;;11.70;1.00;;;;;;5030812;28;20091;-60
2022/12/28 08:20:20;;;;;;;41.33;31.65;;;11.80;1.00;;;;;;5045911;28;20036;-60
2022/12/28 08:22:45;;;;;;;38.33;28.85;;;11.80;1.00;;;;;;5029799;28;20029;-60
2022/12/28 08:25:11;;;;;;;41.78;30.35;;;11.60;1.00;;;;;;5041121;28;20095;-60
2022/12/28 08:27:37;;;;;;;41.08;31.60;;;11.70;1.00;;;;;;5039661;28;20130;-60
2022/12/28 08:30:03;;;;;;;42.08;31.60;;;11.70;1.00;;;;;;5034661;28;20021;-60
2022/12/28 08:32:29;;;;;;;38.17;30.30;;;11.50;1.00;;;;;;5031884;28;20480;-59
2022/12/28 08:34:54;;;;;;;43.03;32.28;;;11.60;1.00;;;;;;5031400;28;20104;-60
2022/12/28 08:37:20;;;;;;;43.30;32.22;;;11.70;1.00;;;;;;5045589;28;20383;-60
2022/12/28 08:39:46;;;;;;;39.60;30.25;;;11.70;1.00;;;;;;5025535;28;20396;-60
2022/12/28 08:42:11;;;;;;;42.83;34.22;;;11.70;1.00;;;;;;5028772;28;20013;-60
2022/12/28 08:44:38;;;;;;;44.05;33.28;;;11.60;1.00;;;;;;5029989;28;20028;-60
2022/12/28 08:47:04;;;;;;;41.08;32.22;;;11.70;1.00;;;;;;5028497;28;20818;-60
2022/12/28 08:49:29;;;;;;;47.20;35.53;;;11.60;1.00;;;;;;5031113;28;20017;-59
2022/12/28 08:51:55;;;;;;;45.70;35.20;;;11.60;1.00;;;;;;5031542;28;20088;-60
2022/12/28 08:54:21;;;;;;;47.67;35.40;;;11.70;1.00;;;;;;5045064;28;20076;-60
2022/12/28 08:56:46;;;;;;;46.13;33.72;;;11.60;1.00;;;;;;5031465;28;20029;-61
2022/12/28 08:59:15;;;;;;;45.97;35.58;;;11.60;1.00;;;;;;5028086;28;20045;-60
2022/12/28 09:01:41;;;;;;;46.38;35.53;;;11.70;1.00;;;;;;5029915;28;20024;-60
2022/12/28 09:04:10;;;;;;;49.63;38.22;;;11.70;1.00;;;;;;5030991;28;20428;-60
2022/12/28 09:06:37;;;;;;;51.05;37.03;;;11.50;1.00;;;;;;5031273;28;20434;-60
2022/12/28 09:09:05;;;;;;;49.60;37.08;;;11.50;1.00;;;;;;5027167;28;20389;-60
2022/12/28 09:11:33;;;;;;;55.05;37.65;;;11.60;1.00;;;;;;5016696;28;20072;-60
2022/12/28 09:14:00;;;;;;;55.10;40.60;;;11.70;1.00;;;;;;5023738;28;20030;-61
2022/12/28 09:16:27;;;;;;;48.83;36.53;;;11.80;1.00;;;;;;5030625;28;20025;-60
2022/12/28 09:18:55;;;;;;;53.88;39.20;;;11.70;1.00;;;;;;5031203;28;20056;-60
2022/12/28 09:21:22;;;;;;;54.97;39.20;;;11.60;1.00;;;;;;5034314;28;20029;-60
2022/12/28 09:23:51;;;;;;;57.88;39.92;;;11.70;1.00;;;;;;5027150;28;20032;-61
2022/12/28 09:26:25;;;;;;;52.25;38.10;;;11.80;1.00;;;;;;5031241;28;20033;-61
2022/12/28 09:28:56;;;;;;;53.95;38.38;;;11.80;1.00;;;;;;5043686;28;20041;-60
2022/12/28 09:31:25;;;;;;;53.65;39.05;;;11.70;1.00;;;;;;5034650;28;20048;-60
2022/12/28 09:33:59;;;;;;;48.85;36.65;;;11.80;1.00;;;;;;5032184;28;20379;-60
2022/12/28 09:36:33;;;;;;;51.45;36.35;;;11.80;1.00;;;;;;5021121;28;20482;-60
2022/12/28 09:39:02;;;;;;;58.35;38.58;;;11.90;1.00;;;;;;5029032;28;20038;-60
2022/12/28 09:41:40;;;;;;;52.65;38.97;;;11.90;1.00;;;;;;5034147;28;20017;-59
2022/12/28 09:44:14;;;;;;;48.50;38.13;;;11.90;1.00;;;;;;5034723;28;20037;-60
2022/12/28 09:47:04;;;;;;;55.10;41.22;;;11.90;1.00;;;;;;5021453;28;20434;-60
2022/12/28 09:49:40;;;;;;;56.35;38.28;;;12.00;1.00;;;;;;5023561;28;20041;-60
2022/12/28 09:52:31;;;;;;;54.38;40.17;;;11.80;1.00;;;;;;5034483;28;20036;-60
2022/12/28 09:55:10;;;;;;;54.08;40.67;;;11.80;1.00;;;;;;5034140;28;20017;-60
2022/12/28 09:57:41;;;;;;;60.85;42.28;;;11.90;1.00;;;;;;5026589;28;20029;-59
2022/12/28 10:00:13;;;;;;;58.92;39.30;;;11.90;1.00;;;;;;5034068;28;20483;-60
2022/12/28 10:02:40;;;;;;;55.45;41.28;;;11.90;1.00;;;;;;5024385;28;20025;-59
2022/12/28 10:05:06;;;;;;;55.78;40.90;;;11.90;1.00;;;;;;5034160;28;20036;-59
2022/12/28 10:07:33;;;;;;;52.40;40.03;;;12.00;1.00;;;;;;5023456;28;20490;-59
2022/12/28 10:09:58;;;;;;;57.35;40.20;;;12.00;1.00;;;;;;5033804;28;20025;-59
2022/12/28 10:12:24;;;;;;;52.88;38.70;;;12.00;1.00;;;;;;5034135;28;20021;-59
2022/12/28 10:14:52;;;;;;;52.05;38.50;;;12.00;1.00;;;;;;5033702;28;20034;-59
2022/12/28 10:17:24;;;;;;;52.40;37.80;;;12.00;1.00;;;;;;5032759;28;20405;-60
2022/12/28 10:19:53;;;;;;;55.05;39.92;;;12.00;1.00;;;;;;5029755;28;20116;-60
2022/12/28 10:22:20;;;;;;;53.75;39.67;;;12.10;1.00;;;;;;5026223;28;20033;-60
2022/12/28 10:24:47;;;;;;;52.05;39.30;;;12.10;1.00;;;;;;5033736;28;20030;-60
2022/12/28 10:27:24;;;;;;;53.70;39.75;;;12.10;1.00;;;;;;5041851;28;20060;-60
2022/12/28 10:29:51;;;;;;;58.38;41.85;;;12.30;1.00;;;;;;5037883;28;20018;-60
2022/12/28 10:32:18;;;;;;;57.97;43.28;;;12.50;1.00;;;;;;5032654;28;20037;-60
2022/12/28 10:35:02;;;;;;;56.60;42.08;;;12.50;1.00;;;;;;5033461;28;20040;-60
2022/12/28 10:37:35;;;;;;;57.95;41.90;;;12.50;1.00;;;;;;5025752;28;20028;-60
2022/12/28 10:40:26;;;;;;;56.17;40.45;;;12.60;1.00;;;;;;5026534;28;20060;-61
2022/12/28 10:42:54;;;;;;;58.47;42.35;;;12.60;1.00;;;;;;5029650;28;20491;-60
2022/12/28 10:45:34;;;;;;;60.83;41.45;;;12.60;1.00;;;;;;5023602;28;20032;-61
2022/12/28 10:48:01;;;;;;;58.17;41.50;;;12.60;1.00;;;;;;5033424;28;20082;-61
2022/12/28 10:50:53;;;;;;;58.25;43.22;;;12.50;1.00;;;;;;5031675;28;20029;-61
2022/12/28 10:53:33;;;;;;;59.22;41.72;;;12.50;1.00;;;;;;5032056;28;20124;-60
2022/12/28 10:56:13;;;;;;;68.05;42.92;;;12.50;1.00;;;;;;5021876;28;20099;-61
2022/12/28 10:58:44;;;;;;;56.53;42.63;;;12.50;1.00;;;;;;5032906;28;20037;-61
2022/12/28 11:01:12;;;;;;;58.40;42.95;;;12.40;1.00;;;;;;5031730;28;20029;-61
2022/12/28 11:03:57;;;;;;;60.60;44.80;;;12.50;1.00;;;;;;5033037;28;20025;-60
2022/12/28 11:06:31;;;;;;;62.13;42.90;;;12.50;1.00;;;;;;5029449;28;20120;-60
2022/12/28 11:09:09;;;;;;;;;;;12.50;1.00;;;;;;5032990;28;20036;-61
2022/12/28 11:11:35;;;;;;;64.25;45.08;;;12.50;1.00;;;;;;5027411;28;19905;-60
2022/12/28 11:14:30;;;;;;;63.65;44.70;;;12.40;1.00;;;;;;5033031;28;20087;-62
2022/12/28 11:16:56;;;;;;;;;;;12.50;1.00;;;;;;5023492;28;20463;-60
2022/12/28 11:19:24;;;;;;;60.00;43.58;;;12.50;1.00;;;;;;5030218;28;19916;-60
2022/12/28 11:21:51;;;;;;;65.47;44.47;;;12.50;1.00;;;;;;5032610;28;20029;-60
2022/12/28 11:24:19;;;;;;;63.13;44.17;;;12.60;1.00;;;;;;5032451;28;20483;-60
2022/12/28 11:26:48;;;;;;;63.55;45.55;;;12.60;1.00;;;;;;5026114;28;20024;-61
2022/12/28 11:29:16;;;;;;;62.45;46.35;;;12.70;1.00;;;;;;5040029;28;20087;-60
2022/12/28 11:31:53;;;;;;;67.22;47.10;;;12.80;1.00;;;;;;5029794;28;20045;-61
2022/12/28 11:34:24;;;;;;;62.65;45.92;;;12.80;1.00;;;;;;5029044;28;20395;-60
2022/12/28 11:36:54;;;;;;;66.43;47.97;;;12.80;1.00;;;;;;5030008;28;20034;-61
2022/12/28 11:39:25;;;;;;;65.68;46.97;;;13.00;1.00;;;;;;5028735;28;20522;-61
2022/12/28 11:41:59;;;;;;;69.50;47.42;;;13.00;1.00;;;;;;5029336;28;20379;-61
2022/12/28 11:44:34;;;;;;;65.07;44.95;;;13.00;1.00;;;;;;5030832;28;20438;-61
2022/12/28 11:46:59;;;;;;;;;;;13.10;1.00;;;;;;5021425;28;20025;-61
2022/12/28 12:02:55;;;;;;;71.93;47.75;;;13.20;1.00;;;;;;5023780;28;20041;-61
2022/12/28 12:05:36;;;;;;;69.47;47.95;;;13.30;1.00;;;;;;5023942;28;20080;-61
2022/12/28 12:08:22;;;;;;;65.45;44.97;;;13.30;1.00;;;;;;5030503;28;20049;-59
2022/12/28 12:11:26;;;;;;;66.45;44.58;;;13.40;1.00;;;;;;5031862;28;20021;-60
2022/12/28 12:13:53;;;;;;;71.50;48.47;;;13.60;1.00;;;;;;5030480;28;20136;-60
2022/12/28 12:16:46;;;;;;;67.38;45.72;;;13.70;1.00;;;;;;5032467;28;20083;-60
2022/12/28 12:19:34;;;;;;;70.13;47.63;;;13.70;1.00;;;;;;5027665;28;20049;-60
2022/12/28 12:22:03;;;;;;;67.50;47.30;;;13.70;1.00;;;;;;5023776;28;20029;-61
2022/12/28 12:24:36;;;;;;;71.00;46.40;;;13.50;1.00;;;;;;5031503;28;20435;-61
2022/12/28 12:27:42;;;;;;;67.93;48.03;;;13.50;1.00;;;;;;5038436;28;20029;-61
2022/12/28 12:30:17;;;;;;;66.43;47.15;;;13.50;1.00;;;;;;5015021;28;20036;-61
2022/12/28 12:32:55;;;;;;;70.32;48.78;;;13.50;1.00;;;;;;5028069;28;20025;-61
2022/12/28 12:35:24;;;;;;;67.72;47.40;;;13.50;1.00;;;;;;5032025;28;20052;-61
2022/12/28 12:37:53;;;;;;;65.60;46.35;;;13.40;1.00;;;;;;5030887;28;20025;-61
2022/12/28 12:40:25;;;;;;;73.43;48.85;;;13.50;1.00;;;;;;5031473;28;20041;-61
2022/12/28 12:42:56;;;;;;;66.97;47.22;;;13.40;1.00;;;;;;5031672;28;20535;-61
2022/12/28 12:45:34;;;;;;;72.15;49.60;;;13.30;1.00;;;;;;5043734;28;20048;-62
2022/12/28 12:48:24;;;;;;;72.15;50.13;;;13.20;1.00;;;;;;5028739;28;20479;-61
2022/12/28 12:50:50;;;;;;;68.53;47.13;;;13.30;1.00;;;;;;5026819;28;20037;-61
2022/12/28 12:53:30;;;;;;;67.13;47.28;;;13.20;1.00;;;;;;5027558;28;20029;-61
2022/12/28 12:56:17;;;;;;;64.50;45.42;;;13.30;1.00;;;;;;5033527;28;20040;-62
2022/12/28 12:59:03;;;;;;;66.90;49.03;;;13.30;1.00;;;;;;5032486;28;20034;-61
2022/12/28 13:01:42;;;;;;;71.47;47.92;;;13.10;1.00;;;;;;5034416;28;20025;-61
2022/12/28 13:04:19;;;;;;;75.45;50.20;;;13.20;1.00;;;;;;5035453;28;20447;-60
2022/12/28 13:06:45;;;;;;;73.82;49.88;;;13.00;1.00;;;;;;5022574;28;20481;-61
2022/12/28 13:09:18;;;;;;;76.95;52.85;;;13.00;1.00;;;;;;5035357;28;20033;-61
2022/12/28 13:11:45;;;;;;;76.60;49.85;;;13.00;1.00;;;;;;5049374;28;20052;-61
2022/12/28 13:14:23;;;;;;;71.35;48.90;;;13.10;1.00;;;;;;5034289;28;20508;-60
2022/12/28 13:16:54;;;;;;;71.28;49.30;;;13.10;1.00;;;;;;5035448;28;20067;-60
2022/12/28 13:19:26;;;;;;;75.88;51.78;;;13.10;1.00;;;;;;5033682;28;20144;-60
2022/12/28 13:21:52;;;;;;;73.88;51.08;;;13.10;1.00;;;;;;5035644;28;20017;-60
2022/12/28 13:24:26;;;;;;;74.05;50.65;;;13.10;1.00;;;;;;5031651;28;20033;-62
2022/12/28 13:26:52;;;;;;;76.53;50.97;;;13.00;1.00;;;;;;5032406;28;20508;-61
2022/12/28 13:29:24;;;;;;;70.65;48.38;;;13.00;1.00;;;;;;5024135;28;20092;-62
2022/12/28 13:31:50;;;;;;;75.57;48.35;;;13.10;1.00;;;;;;5034567;28;20561;-61
2022/12/28 13:34:28;;;;;;;77.60;50.00;;;13.10;1.00;;;;;;5035300;28;20040;-62
2022/12/28 13:37:00;;;;;;;77.05;52.45;;;13.00;1.00;;;;;;5034584;28;20029;-61
2022/12/28 13:39:28;;;;;;;76.88;51.70;;;13.10;1.00;;;;;;5033069;28;20053;-61